Time;durP1;ratioP1;P1;durP2;ratioP2;P2;SDS_P1;SDS_P2;PMS_P1;PMS_P2;Temp;Humidity;BMP_temperature;BMP_pressure;BME280_temperature;BME280_humidity;BME280_pressure;Samples;Min_cycle;Max_cycle;Signal;HPM_P1;HPM_P2
2023/01/28 00:01:21;;;;;;;;;;;;;;;23.75;34.79;94429.13;4981748;28;1727;-68
2023/01/28 00:03:50;;;;;;;;;;;;;;;23.73;35.07;94431.22;4969040;28;1608;-68
2023/01/28 00:06:17;;;;;;;;;;;;;;;23.74;34.82;94422.97;4977192;28;1453;-67
2023/01/28 00:08:42;;;;;;;;;;;;;;;23.77;35.01;94435.06;4969586;28;1915;-69
2023/01/28 00:11:09;;;;;;;;;;;;;;;23.76;34.91;94438.78;4985690;28;1740;-69
2023/01/28 00:13:35;;;;;;;;;;;;;;;23.76;35.27;94438.78;4972772;28;1193;-68
2023/01/28 00:16:01;;;;;;;;;;;;;;;23.80;35.04;94456.00;4974538;28;1783;-68
2023/01/28 00:18:27;;;;;;;;;;;;;;;23.78;35.11;94452.75;4975233;28;1189;-67
2023/01/28 00:20:57;;;;;;;;;;;;;;;23.78;34.85;94455.44;4976802;28;1862;-69
2023/01/28 00:23:23;;;;;;;;;;;;;;;23.78;35.04;94452.75;4968949;28;1797;-68
2023/01/28 00:25:48;;;;;;;;;;;;;;;23.74;35.23;94457.78;4976058;28;1753;-68
2023/01/28 00:28:13;;;;;;;;;;;;;;;23.75;35.14;94458.59;4976885;28;1906;-68
2023/01/28 00:30:38;;;;;;;;;;;;;;;23.75;35.35;94466.63;4962957;28;1843;-68
2023/01/28 00:33:03;;;;;;;;;;;;;;;23.74;35.03;94460.47;4989883;28;2069;-68
2023/01/28 00:35:29;;;;;;;;;;;;;;;23.77;35.02;94467.22;4993144;28;1762;-67
2023/01/28 00:37:54;;;;;;;;;;;;;;;23.75;35.30;94461.28;4974117;28;1957;-68
2023/01/28 00:40:19;;;;;;;;;;;;;;;23.77;35.31;94467.22;4982839;28;1779;-68
2023/01/28 00:42:45;;;;;;;;;;;;;;;23.76;35.12;94468.25;4949282;28;1593;-68
2023/01/28 00:45:10;;;;;;;;;;;;;;;23.78;35.10;94468.81;4964786;28;1849;-68
2023/01/28 00:47:35;;;;;;;;;;;;;;;23.78;35.02;94474.19;4961073;28;1507;-67
2023/01/28 00:50:01;;;;;;;;;;;;;;;23.77;35.08;94469.88;4963333;28;1972;-67
2023/01/28 00:52:27;;;;;;;;;;;;;;;23.77;35.52;94469.88;4971275;28;1849;-67
2023/01/28 00:54:52;;;;;;;;;;;;;;;23.77;35.43;94472.56;4964734;28;1793;-67
2023/01/28 00:57:17;;;;;;;;;;;;;;;23.79;35.27;94467.75;4967423;28;1361;-68
2023/01/28 00:59:43;;;;;;;;;;;;;;;23.78;35.38;94468.81;4961696;28;1976;-67
2023/01/28 01:02:11;;;;;;;;;;;;;;;23.76;35.59;94476.28;5004938;28;1687;-67
2023/01/28 01:04:37;;;;;;;;;;;;;;;23.72;35.74;94461.75;4963135;28;1818;-67
2023/01/28 01:07:02;;;;;;;;;;;;;;;23.72;35.53;94467.09;4992970;28;1441;-68
2023/01/28 01:09:27;;;;;;;;;;;;;;;23.71;35.69;94468.16;4972842;28;1898;-67
2023/01/28 01:11:52;;;;;;;;;;;;;;;23.74;35.96;94473.03;4973215;28;1596;-69
2023/01/28 01:14:18;;;;;;;;;;;;;;;23.77;35.59;94472.56;4956815;28;1545;-68
2023/01/28 01:16:46;;;;;;;;;;;;;;;23.76;35.53;94476.28;4953118;28;1475;-69
2023/01/28 01:19:11;;;;;;;;;;;;;;;23.74;35.84;94467.69;4976434;28;893;-68
2023/01/28 01:21:37;;;;;;;;;;;;;;;23.74;35.93;94479.22;4963847;28;1370;-68
2023/01/28 01:24:02;;;;;;;;;;;;;;;23.74;35.92;94481.06;4969688;28;1415;-68
2023/01/28 01:26:27;;;;;;;;;;;;;;;23.77;35.75;94477.91;4967487;28;1352;-69
2023/01/28 01:28:53;;;;;;;;;;;;;;;23.78;35.80;94474.19;4951709;28;1910;-68
2023/01/28 01:31:19;;;;;;;;;;;;;;;23.81;35.64;94479.06;4956441;28;1628;-68
2023/01/28 01:33:45;;;;;;;;;;;;;;;23.79;35.76;94481.16;4968421;28;1593;-68
2023/01/28 01:36:11;;;;;;;;;;;;;;;23.77;35.85;94477.91;4975557;28;1689;-68
2023/01/28 01:38:36;;;;;;;;;;;;;;;23.77;35.87;94483.28;4956553;28;1319;-68
2023/01/28 01:41:03;;;;;;;;;;;;;;;23.78;36.00;94479.53;4956310;28;1609;-68
2023/01/28 01:43:45;;;;;;;;;;;;;;;23.80;35.84;94480.13;4957445;28;1504;-68
2023/01/28 01:46:11;;;;;;;;;;;;;;;23.75;35.85;94483.50;4964445;28;1683;-68
2023/01/28 01:48:36;;;;;;;;;;;;;;;23.77;36.04;94484.09;4967901;28;1980;-69
2023/01/28 01:51:07;;;;;;;;;;;;;;;23.77;35.94;94475.25;4967310;28;1582;-68
2023/01/28 01:53:34;;;;;;;;;;;;;;;23.77;36.26;94478.72;4976577;28;1841;-67
2023/01/28 01:56:01;;;;;;;;;;;;;;;23.80;36.27;94485.47;4997592;28;1835;-68
2023/01/28 01:58:28;;;;;;;;;;;;;;;23.80;36.08;94488.16;4975386;28;959;-68
2023/01/28 02:00:54;;;;;;;;;;;;;;;23.78;36.21;94490.25;4964597;28;1683;-68
2023/01/28 02:03:23;;;;;;;;;;;;;;;23.78;36.53;94492.94;4957632;28;1839;-68
2023/01/28 02:05:49;;;;;;;;;;;;;;;23.76;36.52;94490.50;4980918;28;1578;-68
2023/01/28 02:08:20;;;;;;;;;;;;;;;23.79;36.57;94491.88;4962209;28;1903;-69
2023/01/28 02:10:47;;;;;;;;;;;;;;;23.81;36.27;94499.69;4993639;28;1768;-68
2023/01/28 02:13:13;;;;;;;;;;;;;;;23.82;36.38;94498.63;4966691;28;1771;-67
2023/01/28 02:15:39;;;;;;;;;;;;;;;23.81;36.28;94502.34;4983572;28;1921;-68
2023/01/28 02:18:04;;;;;;;;;;;;;;;23.81;36.44;94500.47;4967412;28;1817;-68
2023/01/28 02:20:52;;;;;;;;;;;;;;;23.82;36.58;94498.63;4967301;28;1775;-67
2023/01/28 02:23:26;;;;;;;;;;;;;;;23.78;36.71;94500.97;4969804;28;1826;-67
2023/01/28 02:26:10;;;;;;;;;;;;;;;23.84;36.69;94512.59;4995387;28;1740;-68
2023/01/28 02:28:44;;;;;;;;;;;;;;;23.81;36.56;94500.47;4954312;28;1969;-68
2023/01/28 02:31:23;;;;;;;;;;;;;;;23.86;36.56;94508.63;4975443;28;1814;-68
2023/01/28 02:33:58;;;;;;;;;;;;;;;23.83;37.21;94508.31;4973670;28;1550;-68
2023/01/28 02:36:40;;;;;;;;;;;;;;;23.87;36.79;94510.25;4970848;28;1844;-68
2023/01/28 02:39:17;;;;;;;;;;;;;;;23.83;36.83;94509.09;4986598;28;1465;-68
2023/01/28 02:41:49;;;;;;;;;;;;;;;23.82;37.15;94510.13;4999226;28;1842;-67
2023/01/28 02:44:14;;;;;;;;;;;;;;;23.81;37.05;94513.88;4974597;28;1534;-67
2023/01/28 02:49:26;;;;;;;;;;;;;;;23.83;37.22;94513.66;4957242;28;1948;-67
2023/01/28 02:51:51;;;;;;;;;;;;;;;23.82;37.23;94510.13;4972443;28;1524;-67
2023/01/28 02:54:25;;;;;;;;;;;;;;;23.84;37.10;94507.22;4968265;28;1606;-67
2023/01/28 02:56:56;;;;;;;;;;;;;;;23.83;36.98;94509.09;4962728;28;1799;-65
2023/01/28 02:59:40;;;;;;;;;;;;;;;23.86;37.02;94505.13;4993744;28;1617;-65
2023/01/28 03:02:37;;;;;;;;;;;;;;;23.86;37.27;94511.31;4981350;28;1794;-65
2023/01/28 03:05:19;;;;;;;;;;;;;;;23.86;37.10;94508.63;4993926;28;1612;-64
2023/01/28 03:07:45;;;;;;;;;;;;;;;23.90;37.06;94517.00;4972928;28;1881;-64
2023/01/28 03:10:13;;;;;;;;;;;;;;;23.89;37.17;94513.50;4964605;28;1899;-64
2023/01/28 03:38:32;;;;;;;;;;;;;;;23.90;37.09;94525.03;4979080;28;1787;-65
2023/01/28 03:41:02;;;;;;;;;;;;;;;23.90;37.06;94520.47;4977588;28;1604;-65
2023/01/28 03:43:28;;;;;;;;;;;;;;;23.93;37.23;94524.56;4955056;28;1807;-65
2023/01/28 03:45:54;;;;;;;;;;;;;;;23.92;37.00;94518.38;4973012;28;1688;-65
2023/01/28 03:48:20;;;;;;;;;;;;;;;23.93;37.36;94522.69;4959877;28;1907;-65
2023/01/28 03:50:46;;;;;;;;;;;;;;;23.95;37.22;94530.50;4964001;28;1672;-65
2023/01/28 03:53:12;;;;;;;;;;;;;;;23.91;37.30;94527.47;4973856;28;1288;-65
2023/01/28 03:55:38;;;;;;;;;;;;;;;23.94;37.46;94524.31;4994575;28;1546;-65
2023/01/28 03:58:04;;;;;;;;;;;;;;;23.96;37.40;94518.72;4965430;28;1743;-65
2023/01/28 04:00:31;;;;;;;;;;;;;;;23.98;37.12;94521.97;4973659;28;1771;-65
2023/01/28 04:02:56;;;;;;;;;;;;;;;23.97;37.28;94525.72;4972201;28;1849;-65
2023/01/28 04:05:22;;;;;;;;;;;;;;;23.92;37.52;94534.47;4956854;28;1617;-66
2023/01/28 04:07:51;;;;;;;;;;;;;;;23.95;37.51;94544.69;4987235;28;1648;-65
2023/01/28 04:10:17;;;;;;;;;;;;;;;23.99;37.43;94534.31;4968616;28;1902;-65
2023/01/28 04:12:42;;;;;;;;;;;;;;;24.01;37.36;94540.25;4979498;28;1684;-66
2023/01/28 04:15:14;;;;;;;;;;;;;;;23.96;37.46;94546.34;4977349;28;853;-65
2023/01/28 04:17:43;;;;;;;;;;;;;;;23.94;37.70;94537.72;4993271;28;1812;-66
2023/01/28 04:20:09;;;;;;;;;;;;;;;23.94;37.65;94543.09;4975430;28;1695;-66
2023/01/28 04:22:34;;;;;;;;;;;;;;;23.95;37.70;94550.06;4971775;28;1767;-67
2023/01/28 04:24:59;;;;;;;;;;;;;;;23.91;37.49;94543.56;4974241;28;1846;-66
2023/01/28 04:27:25;;;;;;;;;;;;;;;23.93;37.70;94552.16;4998813;28;1803;-66
2023/01/28 04:29:50;;;;;;;;;;;;;;;23.89;37.62;94540.28;4966814;28;1910;-66
2023/01/28 04:32:15;;;;;;;;;;;;;;;23.92;37.95;94557.75;5001315;28;1813;-66
2023/01/28 04:34:40;;;;;;;;;;;;;;;23.95;37.87;94555.41;4977093;28;1783;-64
2023/01/28 04:37:06;;;;;;;;;;;;;;;23.96;37.69;94556.22;4979591;28;1855;-64
2023/01/28 04:39:31;;;;;;;;;;;;;;;23.98;37.62;94557.63;4968807;28;1842;-64
2023/01/28 04:41:56;;;;;;;;;;;;;;;23.99;37.74;94566.47;4969565;28;1692;-65
2023/01/28 04:44:21;;;;;;;;;;;;;;;23.96;37.86;94564.25;4968811;28;1378;-65
2023/01/28 04:46:47;;;;;;;;;;;;;;;23.97;37.63;94572.06;5006274;28;1551;-66
2023/01/28 04:49:12;;;;;;;;;;;;;;;23.94;37.80;94569.88;4975979;28;1910;-66
2023/01/28 04:51:37;;;;;;;;;;;;;;;23.95;37.89;94576.03;4973433;28;1740;-66
2023/01/28 04:54:03;;;;;;;;;;;;;;;23.96;37.78;94575.81;4975903;28;2013;-66
2023/01/28 04:56:28;;;;;;;;;;;;;;;23.94;37.81;94582.47;4971495;28;1583;-65
2023/01/28 04:58:53;;;;;;;;;;;;;;;23.97;37.86;94580.13;4975538;28;1476;-64
2023/01/28 05:01:18;;;;;;;;;;;;;;;23.96;37.67;94588.38;4973100;28;1890;-65
2023/01/28 05:03:44;;;;;;;;;;;;;;;23.96;37.79;94594.56;4964946;28;1500;-65
2023/01/28 05:06:09;;;;;;;;;;;;;;;23.96;37.87;94599.94;4975440;28;1842;-65
2023/01/28 05:08:34;;;;;;;;;;;;;;;23.97;37.94;94590.84;4990195;28;1902;-66
2023/01/28 05:10:59;;;;;;;;;;;;;;;23.94;37.76;94591.31;4983579;28;1733;-66
2023/01/28 05:13:25;;;;;;;;;;;;;;;23.96;37.83;94596.41;4975884;28;1792;-65
2023/01/28 05:15:51;;;;;;;;;;;;;;;23.95;37.88;94600.97;4995441;28;1689;-66
2023/01/28 05:18:17;;;;;;;;;;;;;;;23.95;37.95;94603.63;4985858;28;1689;-65
2023/01/28 05:20:42;;;;;;;;;;;;;;;23.94;37.60;94596.66;4976637;28;1750;-65
2023/01/28 05:23:07;;;;;;;;;;;;;;;23.97;37.77;94606.91;4977704;28;1226;-65
2023/01/28 05:25:32;;;;;;;;;;;;;;;23.97;37.79;94604.22;4963105;28;1789;-65
2023/01/28 05:27:58;;;;;;;;;;;;;;;23.99;37.72;94607.50;4972784;28;1847;-65
2023/01/28 05:30:23;;;;;;;;;;;;;;;23.97;37.82;94606.91;4984821;28;1895;-65
2023/01/28 05:32:49;;;;;;;;;;;;;;;23.97;37.79;94598.88;4974091;28;1813;-66
2023/01/28 05:35:14;;;;;;;;;;;;;;;23.98;37.76;94611.19;4973140;28;1715;-65
2023/01/28 05:37:39;;;;;;;;;;;;;;;23.99;37.74;94612.84;4969349;28;1255;-65
2023/01/28 05:40:05;;;;;;;;;;;;;;;23.97;37.52;94608.78;4990977;28;1753;-65
2023/01/28 05:42:30;;;;;;;;;;;;;;;23.97;37.81;94608.78;4965990;28;1725;-65
2023/01/28 05:44:56;;;;;;;;;;;;;;;23.96;37.72;94613.31;4974498;28;1859;-65
2023/01/28 05:47:21;;;;;;;;;;;;;;;23.95;37.91;94611.69;4971922;28;1854;-66
2023/01/28 05:49:46;;;;;;;;;;;;;;;23.94;37.99;94611.94;4965079;28;1977;-65
2023/01/28 05:52:11;;;;;;;;;;;;;;;23.95;38.01;94613.56;4973782;28;1811;-65
2023/01/28 05:54:37;;;;;;;;;;;;;;;23.97;37.85;94622.97;4975240;28;1774;-65
2023/01/28 05:57:02;;;;;;;;;;;;;;;23.99;37.87;94625.41;4973185;28;1829;-65
2023/01/28 05:59:27;;;;;;;;;;;;;;;23.99;37.95;94625.41;4967006;28;1373;-65
2023/01/28 06:01:52;;;;;;;;;;;;;;;24.01;37.61;94628.69;4967393;28;1729;-65
2023/01/28 06:04:19;;;;;;;;;;;;;;;23.98;37.95;94634.50;4972466;28;1583;-65
2023/01/28 06:06:44;;;;;;;;;;;;;;;23.99;37.97;94641.47;4979822;28;1935;-66
2023/01/28 06:09:09;;;;;;;;;;;;;;;23.98;38.01;94643.34;4985746;28;2463;-65
2023/01/28 06:11:35;;;;;;;;;;;;;;;24.01;38.00;94644.75;4974368;28;1926;-66
2023/01/28 06:14:00;;;;;;;;;;;;;;;23.99;37.86;94646.84;4990993;28;1907;-67
2023/01/28 06:16:25;;;;;;;;;;;;;;;23.93;37.97;94656.63;4985442;28;1386;-65
2023/01/28 06:18:50;;;;;;;;;;;;;;;23.98;38.04;94651.41;4955893;28;1401;-66
2023/01/28 06:21:16;;;;;;;;;;;;;;;23.68;30.21;94661.41;4963246;28;1672;-66
2023/01/28 06:23:41;;;;;;;;;;;;;;;21.15;26.10;94674.41;4953804;28;1818;-65
2023/01/28 06:26:06;;;;;;;;;;;;;;;19.71;27.07;94669.31;4977902;28;1954;-65
2023/01/28 06:28:31;;;;;;;;;;;;;;;18.85;26.56;94669.34;4973292;28;1902;-66
2023/01/28 06:30:57;;;;;;;;;;;;;;;18.32;27.05;94677.97;4973133;28;1688;-66
2023/01/28 06:33:23;;;;;;;;;;;;;;;17.79;27.29;94680.41;4962821;28;1694;-65
2023/01/28 06:35:48;;;;;;;;;;;;;;;17.51;27.83;94678.56;4981831;28;1834;-65
2023/01/28 06:38:13;;;;;;;;;;;;;;;17.25;27.16;94684.50;4980126;28;1833;-65
2023/01/28 06:40:38;;;;;;;;;;;;;;;16.90;27.48;94680.94;4973137;28;1634;-65
2023/01/28 06:43:04;;;;;;;;;;;;;;;16.58;27.70;94687.53;4975240;28;1717;-65
2023/01/28 06:45:30;;;;;;;;;;;;;;;16.49;27.64;94691.31;4963651;28;1791;-65
2023/01/28 06:47:55;;;;;;;;;;;;;;;16.27;27.78;94698.41;4976895;28;1797;-65
2023/01/28 06:50:20;;;;;;;;;;;;;;;16.04;27.99;94701.16;4973731;28;1980;-64
2023/01/28 06:52:46;;;;;;;;;;;;;;;16.01;27.87;94701.53;4961389;28;1714;-64
2023/01/28 06:55:11;;;;;;;;;;;;;;;15.88;28.08;94704.81;4988655;28;1859;-64
2023/01/28 06:57:37;;;;;;;;;;;;;;;15.83;27.99;94710.69;4972380;28;1903;-65
2023/01/28 07:00:03;;;;;;;;;;;;;;;15.63;28.27;94710.38;4993778;28;849;-65
2023/01/28 07:02:28;;;;;;;;;;;;;;;15.58;28.31;94711.91;4986183;28;2005;-63
2023/01/28 07:04:54;;;;;;;;;;;;;;;15.43;28.33;94720.66;4973808;28;1453;-64
2023/01/28 07:07:19;;;;;;;;;;;;;;;16.20;29.42;94706.28;4965896;28;2118;-66
2023/01/28 07:09:44;;;;;;;;;;;;;;;17.35;29.85;94712.50;4967207;28;2802;-63
2023/01/28 07:12:09;;;;;;;;;;;;;;;18.27;29.10;94716.75;4973769;28;1737;-63
2023/01/28 07:14:35;;;;;;;;;;;;;;;18.95;28.84;94722.91;4973491;28;1063;-63
2023/01/28 07:17:00;;;;;;;;;;;;;;;19.43;28.73;94719.25;4985424;28;1796;-65
2023/01/28 07:19:25;;;;;;;;;;;;;;;19.78;28.74;94733.19;4983683;28;1120;-64
2023/01/28 07:21:50;;;;;;;;;;;;;;;20.08;28.83;94738.06;4983225;28;1841;-63
2023/01/28 07:24:16;;;;;;;;;;;;;;;20.28;28.96;94740.66;4985595;28;1929;-64
2023/01/28 07:26:41;;;;;;;;;;;;;;;20.51;28.83;94737.50;4989909;28;1982;-63
2023/01/28 07:29:07;;;;;;;;;;;;;;;20.66;28.94;94740.72;4990442;28;1898;-64
2023/01/28 07:31:33;;;;;;;;;;;;;;;20.78;28.85;94741.72;4967389;28;1982;-64
2023/01/28 07:33:58;;;;;;;;;;;;;;;20.89;28.83;94753.56;4975915;28;1879;-64
2023/01/28 07:36:23;;;;;;;;;;;;;;;21.00;28.96;94758.19;4975435;28;1783;-63
2023/01/28 07:38:48;;;;;;;;;;;;;;;21.08;29.13;94752.59;4992946;28;1385;-63
2023/01/28 07:41:14;;;;;;;;;;;;;;;21.17;29.02;94753.16;4975571;28;1894;-64
2023/01/28 07:43:39;;;;;;;;;;;;;;;21.23;29.23;94751.47;4967809;28;1368;-64
2023/01/28 07:46:04;;;;;;;;;;;;;;;21.31;29.11;94760.03;4969350;28;1376;-71
2023/01/28 07:48:30;;;;;;;;;;;;;;;21.23;29.53;94763.00;4959028;28;1910;-66
2023/01/28 07:50:57;;;;;;;;;;;;;;;19.93;24.76;94763.06;4962472;28;1328;-67
2023/01/28 07:53:22;;;;;;;;;;;;;;;18.49;25.66;94771.38;4965928;28;1687;-65
2023/01/28 07:55:47;;;;;;;;;;;;;;;18.57;28.16;94770.41;4973726;28;1851;-64
2023/01/28 07:58:13;;;;;;;;;;;;;;;19.37;29.17;94766.13;4985837;28;1608;-64
2023/01/28 08:00:38;;;;;;;;;;;;;;;20.05;29.42;94770.41;4958201;28;1553;-66
2023/01/28 08:03:05;;;;;;;;;;;;;;;20.54;29.86;94772.56;4980590;28;1575;-71
2023/01/28 08:05:51;;;;;;;;;;;;;;;20.86;31.28;94773.47;4972926;28;1571;-65
2023/01/28 08:08:17;;;;;;;;;;;;;;;21.23;31.21;94772.81;4971127;28;1898;-65
2023/01/28 08:10:42;;;;;;;;;;;;;;;21.38;31.23;94769.91;4982040;28;1546;-66
2023/01/28 08:13:09;;;;;;;;;;;;;;;21.55;30.96;94777.16;4974033;28;1857;-65
2023/01/28 08:15:35;;;;;;;;;;;;;;;21.65;31.02;94776.66;4971739;28;1525;-67
2023/01/28 08:18:00;;;;;;;;;;;;;;;21.70;30.84;94781.34;4959065;28;1333;-65
2023/01/28 08:20:27;;;;;;;;;;;;;;;21.73;30.66;94787.06;4958733;28;1632;-65
2023/01/28 08:22:52;;;;;;;;;;;;;;;21.75;30.77;94787.69;4966830;28;1489;-65
2023/01/28 08:25:17;;;;;;;;;;;;;;;21.85;30.62;94786.34;4974222;28;1562;-65
2023/01/28 08:27:42;;;;;;;;;;;;;;;21.88;30.86;94785.91;4965485;28;1838;-64
2023/01/28 08:30:08;;;;;;;;;;;;;;;21.91;30.89;94780.94;4970516;28;1902;-64
2023/01/28 08:32:34;;;;;;;;;;;;;;;21.94;30.92;94783.22;4962751;28;1291;-64
2023/01/28 08:34:59;;;;;;;;;;;;;;;21.96;31.01;94793.66;4975335;28;1635;-65
2023/01/28 08:37:25;;;;;;;;;;;;;;;21.99;30.91;94793.22;4975552;28;1477;-64
2023/01/28 08:39:50;;;;;;;;;;;;;;;22.00;30.73;94786.84;4956074;28;1541;-64
2023/01/28 08:42:15;;;;;;;;;;;;;;;22.02;30.87;94792.78;4973034;28;1611;-64
2023/01/28 08:44:41;;;;;;;;;;;;;;;22.04;30.69;94792.56;4955436;28;1339;-64
2023/01/28 08:47:06;;;;;;;;;;;;;;;21.82;30.75;94784.13;4970193;28;1312;-67
2023/01/28 08:49:32;;;;;;;;;;;;;;;21.96;31.26;94790.97;4971187;28;1980;-69
2023/01/28 08:51:57;;;;;;;;;;;;;;;22.12;31.90;94795.78;4965993;28;1362;-63
2023/01/28 08:54:22;;;;;;;;;;;;;;;22.25;32.47;94799.38;4964006;28;1238;-62
2023/01/28 08:56:48;;;;;;;;;;;;;;;22.31;32.43;94801.16;4974188;28;1487;-64
2023/01/28 08:59:13;;;;;;;;;;;;;;;22.35;32.66;94797.03;4976477;28;870;-63
2023/01/28 09:01:39;;;;;;;;;;;;;;;22.43;32.94;94802.09;4966407;28;1420;-63
2023/01/28 09:04:04;;;;;;;;;;;;;;;22.49;33.12;94790.50;4975950;28;1320;-65
2023/01/28 09:06:30;;;;;;;;;;;;;;;22.55;33.06;94797.63;4987205;28;1822;-64
2023/01/28 09:08:56;;;;;;;;;;;;;;;22.62;33.20;94803.69;4968491;28;1895;-63
2023/01/28 09:11:21;;;;;;;;;;;;;;;21.89;28.73;94798.25;4965673;28;1760;-65
2023/01/28 09:13:46;;;;;;;;;;;;;;;21.18;30.46;94800.16;4960269;28;1919;-65
2023/01/28 09:16:12;;;;;;;;;;;;;;;21.20;30.45;94799.94;4967637;28;1338;-64
2023/01/28 09:18:37;;;;;;;;;;;;;;;21.30;32.20;94798.44;4975855;28;1334;-63
2023/01/28 09:21:06;;;;;;;;;;;;;;;21.68;32.28;94800.25;4990216;28;2293;-66
2023/01/28 09:23:35;;;;;;;;;;;;;;;21.96;32.28;94799.00;4972842;28;1919;-63
2023/01/28 09:26:00;;;;;;;;;;;;;;;22.14;32.06;94803.56;4946606;28;10849;-65
2023/01/28 09:28:26;;;;;;;;;;;;;;;22.22;32.13;94803.31;4942733;28;10428;-64
2023/01/28 09:30:51;;;;;;;;;;;;;;;22.32;32.23;94818.84;4965060;28;1847;-65
2023/01/28 09:33:16;;;;;;;;;;;;;;;22.40;31.96;94794.50;4975827;28;849;-66
2023/01/28 09:35:41;;;;;;;;;;;;;;;22.44;31.94;94793.81;4966382;28;1118;-65
2023/01/28 09:38:07;;;;;;;;;;;;;;;22.46;31.78;94801.63;4975389;28;1285;-67
2023/01/28 09:40:32;;;;;;;;;;;;;;;22.46;31.81;94798.97;4975568;28;940;-64
2023/01/28 09:43:11;;;;;;;;;;;;;;;22.48;31.71;94802.22;4975578;28;861;-65
2023/01/28 09:45:44;;;;;;;;;;;;;;;22.50;31.51;94796.66;4975620;28;889;-65
2023/01/28 09:48:13;;;;;;;;;;;;;;;22.52;31.59;94799.94;4965932;28;1084;-65
2023/01/28 09:50:40;;;;;;;;;;;;;;;22.52;31.53;94798.06;4975410;28;790;-64
2023/01/28 09:53:15;;;;;;;;;;;;;;;22.53;31.66;94807.72;4975420;28;947;-65
2023/01/28 09:56:07;;;;;;;;;;;;;;;22.55;31.46;94797.63;4974383;28;875;-65
2023/01/28 09:58:32;;;;;;;;;;;;;;;22.55;31.48;94794.94;4965471;28;1322;-65
2023/01/28 10:01:01;;;;;;;;;;;;;;;22.58;31.49;94797.16;4975073;28;1089;-64
2023/01/28 10:03:26;;;;;;;;;;;;;;;22.59;31.26;94806.81;4975113;28;1002;-65
2023/01/28 10:06:13;;;;;;;;;;;;;;;22.60;31.31;94800.44;4975373;28;813;-65
2023/01/28 10:08:49;;;;;;;;;;;;;;;22.61;31.19;94801.25;4975064;28;1906;-65
2023/01/28 10:11:23;;;;;;;;;;;;;;;22.60;31.47;94797.78;4967957;28;1088;-65
2023/01/28 10:13:55;;;;;;;;;;;;;;;22.62;31.36;94794.84;4975062;28;869;-64
2023/01/28 10:16:28;;;;;;;;;;;;;;;22.64;31.25;94790.13;4975018;28;893;-65
2023/01/28 10:18:57;;;;;;;;;;;;;;;22.66;31.19;94796.06;4974979;28;873;-66
2023/01/28 10:21:41;;;;;;;;;;;;;;;22.66;31.34;94788.03;4965555;28;1019;-65
2023/01/28 10:24:13;;;;;;;;;;;;;;;22.67;31.43;94795.00;4974990;28;892;-66
2023/01/28 10:26:40;;;;;;;;;;;;;;;22.68;31.31;94789.47;4974886;28;861;-65
2023/01/28 10:29:12;;;;;;;;;;;;;;;22.68;31.39;94786.78;4974738;28;1975;-65
2023/01/28 10:31:40;;;;;;;;;;;;;;;22.71;31.30;94792.69;4971414;28;1237;-66
2023/01/28 10:34:06;;;;;;;;;;;;;;;22.72;31.09;94786.34;4969919;28;1091;-64
2023/01/28 10:36:31;;;;;;;;;;;;;;;22.72;31.21;94787.16;4974639;28;951;-66
2023/01/28 10:38:57;;;;;;;;;;;;;;;22.75;31.13;94799.25;4974686;28;853;-65
2023/01/28 10:41:24;;;;;;;;;;;;;;;22.75;31.14;94797.38;4974605;28;851;-65
2023/01/28 10:43:50;;;;;;;;;;;;;;;22.76;31.19;94787.50;4964113;28;1298;-65
2023/01/28 10:46:24;;;;;;;;;;;;;;;22.77;31.25;94789.13;4974248;28;1195;-65
2023/01/28 10:48:55;;;;;;;;;;;;;;;22.78;31.12;94786.25;4973101;28;1902;-66
2023/01/28 10:51:30;;;;;;;;;;;;;;;22.78;30.94;94786.25;4974481;28;1071;-65
2023/01/28 10:53:56;;;;;;;;;;;;;;;22.79;31.02;94782.50;4974555;28;936;-65
2023/01/28 10:56:26;;;;;;;;;;;;;;;22.79;31.02;94787.06;4964915;28;1003;-65
2023/01/28 10:58:58;;;;;;;;;;;;;;;22.81;31.01;94787.66;4974374;28;833;-66
2023/01/28 11:01:24;;;;;;;;;;;;;;;22.81;30.90;94780.44;4974410;28;860;-66
2023/01/28 11:03:54;;;;;;;;;;;;;;;22.83;31.05;94782.91;4974544;28;892;-64
2023/01/28 11:06:23;;;;;;;;;;;;;;;22.85;30.90;94788.81;4966977;28;1187;-67
2023/01/28 11:08:48;;;;;;;;;;;;;;;22.84;30.77;94782.66;4973292;28;1902;-65
2023/01/28 11:11:14;;;;;;;;;;;;;;;22.85;30.74;94781.63;4974303;28;888;-65
2023/01/28 11:13:48;;;;;;;;;;;;;;;22.86;30.91;94783.25;4974492;28;854;-65
2023/01/28 11:16:16;;;;;;;;;;;;;;;22.89;30.89;94779.31;4974293;28;869;-66
2023/01/28 11:18:50;;;;;;;;;;;;;;;22.88;30.79;94785.69;4964765;28;1076;-64
2023/01/28 11:21:20;;;;;;;;;;;;;;;22.89;30.52;94779.31;4974199;28;844;-64
2023/01/28 11:23:49;;;;;;;;;;;;;;;22.90;30.35;94772.91;4974084;28;821;-63
2023/01/28 11:26:16;;;;;;;;;;;;;;;22.92;30.58;94775.38;4974090;28;888;-65
2023/01/28 11:28:42;;;;;;;;;;;;;;;22.93;30.38;94779.69;4969606;28;1970;-66
2023/01/28 11:31:09;;;;;;;;;;;;;;;22.93;30.57;94780.50;4968796;28;1246;-66
2023/01/28 11:33:57;;;;;;;;;;;;;;;22.95;30.40;94777.59;4974353;28;917;-66
2023/01/28 11:36:24;;;;;;;;;;;;;;;22.96;30.44;94776.59;4973479;28;1803;-66
2023/01/28 11:38:52;;;;;;;;;;;;;;;22.96;30.50;94782.75;4974070;28;1434;-65
2023/01/28 11:41:18;;;;;;;;;;;;;;;22.97;30.50;94784.41;4964492;28;1063;-65
2023/01/28 11:43:46;;;;;;;;;;;;;;;22.98;30.60;94786.03;4974076;28;805;-65
2023/01/28 11:46:14;;;;;;;;;;;;;;;22.99;30.77;94786.81;4974273;28;861;-65
2023/01/28 11:48:58;;;;;;;;;;;;;;;22.98;30.68;94780.66;4973950;28;1968;-65
2023/01/28 11:51:42;;;;;;;;;;;;;;;22.99;30.53;94768.91;4969232;28;1013;-65
2023/01/28 11:54:16;;;;;;;;;;;;;;;22.99;30.51;94774.25;4985043;28;1342;-65
2023/01/28 11:56:41;;;;;;;;;;;;;;;22.99;30.52;94771.59;4973860;28;786;-66
2023/01/28 11:59:25;;;;;;;;;;;;;;;22.98;30.70;94767.28;4972578;28;1200;-65
2023/01/28 12:02:08;;;;;;;;;;;;;;;22.99;30.50;94771.59;4973818;28;838;-65
2023/01/28 12:04:57;;;;;;;;;;;;;;;23.00;30.65;94778.59;4963005;28;1295;-64
2023/01/28 12:07:31;;;;;;;;;;;;;;;23.00;30.66;94775.91;4973707;28;805;-66
2023/01/28 12:09:59;;;;;;;;;;;;;;;23.01;30.60;94774.88;4988562;28;1965;-66
2023/01/28 12:12:40;;;;;;;;;;;;;;;23.01;30.48;94777.53;4974026;28;798;-65
2023/01/28 12:15:06;;;;;;;;;;;;;;;23.03;30.50;94778.13;4964257;28;1106;-65
2023/01/28 12:17:40;;;;;;;;;;;;;;;23.03;30.46;94780.81;4974070;28;802;-66
2023/01/28 12:20:15;;;;;;;;;;;;;;;23.04;30.59;94779.75;4976697;28;866;-66
2023/01/28 12:22:53;;;;;;;;;;;;;;;23.05;30.44;94783.25;4975940;28;1224;-66
2023/01/28 12:25:33;;;;;;;;;;;;;;;23.04;30.63;94779.75;4972895;28;1060;-66
2023/01/28 12:28:08;;;;;;;;;;;;;;;23.05;30.64;94778.75;4972240;28;1177;-65
2023/01/28 12:30:39;;;;;;;;;;;;;;;23.08;30.40;94777.44;4976791;28;1907;-65
2023/01/28 12:33:23;;;;;;;;;;;;;;;23.05;30.47;94776.06;4976979;28;1043;-65
2023/01/28 12:35:51;;;;;;;;;;;;;;;23.05;30.62;94785.91;4976966;28;881;-64
2023/01/28 12:38:42;;;;;;;;;;;;;;;23.04;30.52;94781.63;4967484;28;1167;-64
2023/01/28 12:41:17;;;;;;;;;;;;;;;23.07;30.50;94787.34;4975358;28;1421;-65
2023/01/28 12:43:54;;;;;;;;;;;;;;;23.08;30.41;94791.66;4976886;28;880;-65
2023/01/28 12:46:35;;;;;;;;;;;;;;;23.07;30.58;94790.00;4976842;28;883;-65
2023/01/28 12:49:05;;;;;;;;;;;;;;;23.08;30.25;94797.00;4966986;28;1973;-65
2023/01/28 12:51:34;;;;;;;;;;;;;;;23.04;30.49;94795.81;4976787;28;822;-66
2023/01/28 12:54:02;;;;;;;;;;;;;;;23.10;30.47;94805.59;4976768;28;869;-66
2023/01/28 12:56:33;;;;;;;;;;;;;;;23.15;30.34;94799.59;4977021;28;889;-66
2023/01/28 12:59:10;;;;;;;;;;;;;;;23.10;30.64;94797.56;4976588;28;920;-65
2023/01/28 13:01:50;;;;;;;;;;;;;;;23.11;30.53;94799.22;4968305;28;958;-65
2023/01/28 13:04:28;;;;;;;;;;;;;;;23.11;30.41;94801.91;4976535;28;888;-65
2023/01/28 13:06:59;;;;;;;;;;;;;;;23.09;30.56;94803.16;4976428;28;869;-65
2023/01/28 13:09:25;;;;;;;;;;;;;;;23.12;30.49;94805.41;4976239;28;1890;-65
2023/01/28 13:11:52;;;;;;;;;;;;;;;23.16;30.48;94805.75;4966659;28;1021;-65
2023/01/28 13:14:20;;;;;;;;;;;;;;;23.14;30.51;94811.34;4976540;28;885;-64
2023/01/28 13:16:46;;;;;;;;;;;;;;;23.17;30.51;94816.25;4976248;28;924;-65
2023/01/28 13:19:17;;;;;;;;;;;;;;;23.14;30.62;94822.06;4976516;28;795;-65
2023/01/28 13:21:43;;;;;;;;;;;;;;;23.12;30.35;94811.56;4974894;28;1204;-65
2023/01/28 13:24:10;;;;;;;;;;;;;;;23.17;30.29;94820.75;4966700;28;1079;-65
2023/01/28 13:26:55;;;;;;;;;;;;;;;23.14;30.45;94816.69;4974763;28;1468;-66
2023/01/28 13:29:31;;;;;;;;;;;;;;;23.13;30.46;94826.56;4974588;28;1950;-65
2023/01/28 13:31:59;;;;;;;;;;;;;;;23.17;30.50;94820.75;4990711;28;1377;-65